createdAt,value
2022-09-28T00:01:16.145Z,11.37
2022-09-28T00:03:49.112Z,11.37
2022-09-28T00:06:23.457Z,11.37
2022-09-28T00:08:56.002Z,11.35
2022-09-28T00:11:29.247Z,11.34
2022-09-28T00:14:03.822Z,11.31
2022-09-28T00:16:42.116Z,11.27
2022-09-28T00:19:14.897Z,11.25
2022-09-28T00:21:48.145Z,11.25
2022-09-28T00:24:24.040Z,11.25
2022-09-28T00:27:01.660Z,11.23
2022-09-28T00:29:35.597Z,11.22
2022-09-28T00:32:11.741Z,11.19
2022-09-28T00:34:46.947Z,11.14
2022-09-28T00:37:20.106Z,11.09
2022-09-28T00:39:52.094Z,11.03
2022-09-28T00:42:26.410Z,10.99
2022-09-28T00:44:59.187Z,10.92
2022-09-28T00:47:53.250Z,10.86
2022-09-28T00:50:31.467Z,10.81
2022-09-28T00:53:06.393Z,10.77
2022-09-28T00:55:43.071Z,10.76
2022-09-28T00:58:18.497Z,10.75
2022-09-28T01:00:51.130Z,10.75
2022-09-28T01:03:23.276Z,10.74
2022-09-28T01:05:57.425Z,10.73
2022-09-28T01:08:31.217Z,10.72
2022-09-28T01:11:04.324Z,10.69
2022-09-28T01:13:36.650Z,10.65
2022-09-28T01:16:20.617Z,10.61
2022-09-28T01:19:02.827Z,10.57
2022-09-28T01:21:49.937Z,10.56
2022-09-28T01:24:40.689Z,10.54
2022-09-28T01:27:20.721Z,10.51
2022-09-28T01:30:02.786Z,10.49
2022-09-28T01:32:42.555Z,10.44
2022-09-28T01:35:18.463Z,10.41
2022-09-28T01:37:54.207Z,10.40
2022-09-28T01:40:28.580Z,10.41
2022-09-28T01:43:05.563Z,10.40
2022-09-28T01:45:43.264Z,10.39
2022-09-28T01:48:20.824Z,10.39
2022-09-28T01:50:54.732Z,10.39
2022-09-28T01:53:33.269Z,10.37
2022-09-28T01:56:12.616Z,10.35
2022-09-28T01:58:49.798Z,10.37
2022-09-28T02:01:26.355Z,10.39
2022-09-28T02:04:04.991Z,10.41
2022-09-28T02:06:42.025Z,10.42
2022-09-28T02:09:20.276Z,10.42
2022-09-28T02:11:59.118Z,10.41
2022-09-28T02:14:32.781Z,10.38
2022-09-28T02:17:06.783Z,10.34
2022-09-28T02:19:40.537Z,10.33
2022-09-28T02:22:23.501Z,10.32
2022-09-28T02:25:00.420Z,10.27
2022-09-28T02:27:35.908Z,10.23
2022-09-28T02:30:11.403Z,10.21
2022-09-28T02:32:48.082Z,10.22
2022-09-28T02:35:19.572Z,10.22
2022-09-28T02:37:52.111Z,10.23
2022-09-28T02:40:30.173Z,10.22
2022-09-28T02:43:11.698Z,10.22
2022-09-28T02:45:58.568Z,10.22
2022-09-28T02:49:00.235Z,10.20
2022-09-28T02:51:47.764Z,10.19
2022-09-28T02:54:31.403Z,10.20
2022-09-28T02:57:13.236Z,10.21
2022-09-28T02:59:55.498Z,10.20
2022-09-28T03:02:33.708Z,10.20
2022-09-28T03:05:20.655Z,10.22
2022-09-28T03:08:00.244Z,10.23
2022-09-28T03:10:38.772Z,10.25
2022-09-28T03:13:12.437Z,10.28
2022-09-28T03:15:48.646Z,10.31
2022-09-28T03:18:22.400Z,10.33
2022-09-28T03:20:54.408Z,10.32
2022-09-28T03:23:26.749Z,10.31
2022-09-28T03:25:58.648Z,10.31
2022-09-28T03:28:30.836Z,10.32
2022-09-28T03:31:03.901Z,10.35
2022-09-28T03:33:36.050Z,10.36
2022-09-28T03:36:09.648Z,10.37
2022-09-28T03:38:41.793Z,10.37
2022-09-28T03:41:13.728Z,10.38
2022-09-28T03:43:47.202Z,10.38
2022-09-28T03:46:19.479Z,10.38
2022-09-28T03:48:57.733Z,10.40
2022-09-28T03:51:29.708Z,10.39
2022-09-28T03:54:01.627Z,10.38
2022-09-28T03:56:33.571Z,10.37
2022-09-28T03:59:06.655Z,10.37
2022-09-28T04:01:38.813Z,10.36
2022-09-28T04:04:14.760Z,10.35
2022-09-28T04:06:46.889Z,10.33
2022-09-28T04:09:18.872Z,10.31
2022-09-28T04:12:03.281Z,10.31
2022-09-28T04:14:36.411Z,10.32
2022-09-28T04:17:08.857Z,10.29
2022-09-28T04:19:41.491Z,10.27
2022-09-28T04:22:45.429Z,10.25
2022-09-28T04:25:17.322Z,10.25
2022-09-28T04:28:07.555Z,10.24
2022-09-28T04:30:39.824Z,10.22
2022-09-28T04:33:11.804Z,10.22
2022-09-28T04:35:43.736Z,10.21
2022-09-28T04:38:20.679Z,10.19
2022-09-28T04:41:02.937Z,10.18
2022-09-28T04:43:34.932Z,10.18
2022-09-28T04:46:07.429Z,10.16
2022-09-28T04:48:47.283Z,10.15
2022-09-28T04:51:38.073Z,10.12
2022-09-28T04:54:10.290Z,10.10
2022-09-28T04:56:42.368Z,10.07
2022-09-28T04:59:14.695Z,10.04
2022-09-28T05:01:47.577Z,10.04
2022-09-28T05:04:34.517Z,10.03
2022-09-28T05:07:25.262Z,10.03
2022-09-28T05:09:57.165Z,10.02
2022-09-28T05:12:29.091Z,10.01
2022-09-28T05:15:01.056Z,10.01
2022-09-28T05:17:33.015Z,9.99
2022-09-28T05:20:14.935Z,9.97
2022-09-28T05:22:46.925Z,9.95
2022-09-28T05:25:18.974Z,9.92
2022-09-28T05:28:12.445Z,9.89
2022-09-28T05:31:05.865Z,9.85
2022-09-28T05:33:56.721Z,9.82
2022-09-28T05:36:30.331Z,9.80
2022-09-28T05:39:03.946Z,9.78
2022-09-28T05:41:36.729Z,9.77
2022-09-28T05:44:08.582Z,9.75
2022-09-28T05:46:41.130Z,9.73
2022-09-28T05:49:14.817Z,9.72
2022-09-28T05:51:46.888Z,9.73
2022-09-28T05:54:19.232Z,9.72
2022-09-28T05:56:51.884Z,9.71
2022-09-28T05:59:23.847Z,9.71
2022-09-28T06:01:55.808Z,9.72
2022-09-28T06:04:27.960Z,9.75
2022-09-28T06:07:00.101Z,9.76
2022-09-28T06:09:32.779Z,9.80
2022-09-28T06:12:07.715Z,9.82
2022-09-28T06:14:48.748Z,9.85
2022-09-28T06:17:20.782Z,9.88
2022-09-28T06:20:00.798Z,9.89
2022-09-28T06:22:55.504Z,9.92
2022-09-28T06:25:28.557Z,9.94
2022-09-28T06:28:07.200Z,9.96
2022-09-28T06:30:39.680Z,9.98
2022-09-28T06:33:16.435Z,9.98
2022-09-28T06:35:48.382Z,10.01
2022-09-28T06:38:20.558Z,10.04
2022-09-28T06:40:53.764Z,10.08
2022-09-28T06:43:25.772Z,10.24
2022-09-28T06:46:21.070Z,10.56
2022-09-28T06:49:18.629Z,10.85
2022-09-28T06:52:11.975Z,11.01
2022-09-28T06:55:02.422Z,11.11
2022-09-28T06:57:43.594Z,11.17
2022-09-28T07:00:17.560Z,11.20
2022-09-28T07:02:51.279Z,11.23
2022-09-28T07:05:54.173Z,11.20
2022-09-28T07:08:46.178Z,11.25
2022-09-28T07:11:44.807Z,11.27
2022-09-28T07:14:44.257Z,11.26
2022-09-28T07:17:19.642Z,11.28
2022-09-28T07:19:53.678Z,11.31
2022-09-28T07:22:41.276Z,11.34
2022-09-28T07:25:16.472Z,11.45
2022-09-28T07:27:52.920Z,11.61
2022-09-28T07:30:48.556Z,11.75
2022-09-28T07:33:43.655Z,11.95
2022-09-28T07:36:22.873Z,12.13
2022-09-28T07:38:56.189Z,12.30
2022-09-28T07:41:33.400Z,12.39
2022-09-28T07:44:07.714Z,12.30
2022-09-28T07:46:41.238Z,12.19
2022-09-28T07:49:25.080Z,12.14
2022-09-28T07:52:09.843Z,12.24
2022-09-28T07:55:12.115Z,12.53
2022-09-28T07:58:03.180Z,12.66
2022-09-28T08:00:51.937Z,12.69
2022-09-28T08:03:24.794Z,12.63
2022-09-28T08:06:01.770Z,12.51
2022-09-28T08:08:36.610Z,12.40
2022-09-28T08:11:10.614Z,12.33
2022-09-28T08:14:08.636Z,12.27
2022-09-28T08:16:59.540Z,12.21
2022-09-28T08:20:06.805Z,12.14
2022-09-28T08:22:40.368Z,12.14
2022-09-28T08:25:12.788Z,12.09
2022-09-28T08:27:44.589Z,12.13
2022-09-28T08:30:16.843Z,12.27
2022-09-28T08:33:07.973Z,12.51
2022-09-28T08:36:05.243Z,12.75
2022-09-28T08:39:00.206Z,13.03
2022-09-28T08:41:56.956Z,13.29
2022-09-28T08:44:50.888Z,13.69
2022-09-28T08:48:14.992Z,14.00
2022-09-28T08:51:07.361Z,13.94
2022-09-28T08:53:57.011Z,14.00
2022-09-28T08:56:39.991Z,13.94
2022-09-28T08:59:17.516Z,13.84
2022-09-28T09:01:58.027Z,13.78
2022-09-28T09:04:31.368Z,13.87
2022-09-28T09:07:45.881Z,14.11
2022-09-28T09:10:36.652Z,14.27
2022-09-28T09:13:27.059Z,14.41
2022-09-28T09:16:05.757Z,14.67
2022-09-28T09:19:06.232Z,15.01
2022-09-28T09:22:01.649Z,15.10
2022-09-28T09:24:44.077Z,15.35
2022-09-28T09:27:39.327Z,15.83
2022-09-28T09:30:19.216Z,16.20
2022-09-28T09:33:28.219Z,16.28
2022-09-28T09:36:54.209Z,16.28
2022-09-28T09:40:16.640Z,16.61
2022-09-28T09:43:16.189Z,16.67
2022-09-28T09:46:16.121Z,16.80
2022-09-28T09:49:16.550Z,17.19
2022-09-28T09:51:56.098Z,17.58
2022-09-28T09:54:31.683Z,17.57
2022-09-28T09:57:09.140Z,17.64
2022-09-28T09:59:53.817Z,17.85
2022-09-28T10:02:34.221Z,18.21
2022-09-28T10:05:21.994Z,18.11
2022-09-28T10:08:01.494Z,17.88
2022-09-28T10:10:37.492Z,17.67
2022-09-28T10:13:14.795Z,17.38
2022-09-28T10:15:50.603Z,17.23
2022-09-28T10:18:30.345Z,17.07
2022-09-28T10:21:32.551Z,16.85
2022-09-28T10:24:19.004Z,16.61
2022-09-28T10:26:55.759Z,16.25
2022-09-28T10:29:27.142Z,15.92
2022-09-28T10:31:59.247Z,15.98
2022-09-28T10:34:35.694Z,16.21
2022-09-28T10:37:14.259Z,16.17
2022-09-28T10:40:28.323Z,15.97
2022-09-28T10:43:06.180Z,15.86
2022-09-28T10:45:40.359Z,15.74
2022-09-28T10:48:20.717Z,15.60
2022-09-28T10:51:06.705Z,15.43
2022-09-28T10:53:40.186Z,15.23
2022-09-28T10:56:28.593Z,15.05
2022-09-28T10:59:26.440Z,14.88
2022-09-28T11:02:02.546Z,14.73
2022-09-28T11:04:41.357Z,14.56
2022-09-28T11:07:20.639Z,14.46
2022-09-28T11:09:54.657Z,14.38
2022-09-28T11:12:29.781Z,14.37
2022-09-28T11:15:04.940Z,14.48
2022-09-28T11:17:40.615Z,14.86
2022-09-28T11:20:34.979Z,15.07
2022-09-28T11:23:23.433Z,15.14
2022-09-28T11:26:06.556Z,15.12
2022-09-28T11:28:42.250Z,15.03
2022-09-28T11:31:29.188Z,14.92
2022-09-28T11:34:15.167Z,14.79
2022-09-28T11:37:13.598Z,14.70
2022-09-28T11:39:55.437Z,14.64
2022-09-28T11:42:38.690Z,14.59
2022-09-28T11:45:37.011Z,14.50
2022-09-28T11:48:13.166Z,14.44
2022-09-28T11:50:51.568Z,14.44
2022-09-28T11:53:28.605Z,14.45
2022-09-28T11:56:13.513Z,14.58
2022-09-28T11:58:48.621Z,14.66
2022-09-28T12:01:27.567Z,14.64
2022-09-28T12:04:26.784Z,14.61
2022-09-28T12:07:05.320Z,14.58
2022-09-28T12:09:44.602Z,14.57
2022-09-28T12:12:32.533Z,14.54
2022-09-28T12:15:15.402Z,14.49
2022-09-28T12:17:53.003Z,14.43
2022-09-28T12:20:28.468Z,14.32
2022-09-28T12:23:08.441Z,14.19
2022-09-28T12:25:46.297Z,14.07
2022-09-28T12:28:29.427Z,13.91
2022-09-28T12:31:09.159Z,13.75
2022-09-28T12:33:42.946Z,13.78
2022-09-28T12:36:30.289Z,13.92
2022-09-28T12:39:40.653Z,13.98
2022-09-28T12:42:27.771Z,14.02
2022-09-28T12:45:13.788Z,14.06
2022-09-28T12:48:09.036Z,14.03
2022-09-28T12:50:56.820Z,14.00
2022-09-28T12:53:55.329Z,13.94
2022-09-28T12:56:38.496Z,13.87
2022-09-28T12:59:20.953Z,13.82
2022-09-28T13:02:38.266Z,13.74
2022-09-28T13:05:25.673Z,13.69
2022-09-28T13:07:59.085Z,13.66
2022-09-28T13:10:37.362Z,13.67
2022-09-28T13:13:23.249Z,13.61
2022-09-28T13:16:02.519Z,13.54
2022-09-28T13:18:42.482Z,13.48
2022-09-28T13:21:24.090Z,13.44
2022-09-28T13:24:08.999Z,13.38
2022-09-28T13:26:48.570Z,13.33
2022-09-28T13:29:22.292Z,13.29
2022-09-28T13:31:57.166Z,13.32
2022-09-28T13:34:32.232Z,13.37
2022-09-28T13:37:24.904Z,13.46
2022-09-28T13:39:57.682Z,13.55
2022-09-28T13:42:51.872Z,13.66
2022-09-28T13:45:47.615Z,13.84
2022-09-28T13:48:24.284Z,13.99
2022-09-28T13:51:15.934Z,14.07
2022-09-28T13:54:31.775Z,14.09
2022-09-28T13:57:17.104Z,14.08
2022-09-28T13:59:59.201Z,14.12
2022-09-28T14:02:37.722Z,14.22
2022-09-28T14:05:46.469Z,14.35
2022-09-28T14:08:41.279Z,14.45
2022-09-28T14:11:45.057Z,14.54
2022-09-28T14:14:45.764Z,14.51
2022-09-28T14:17:50.536Z,14.52
2022-09-28T14:20:27.494Z,14.59
2022-09-28T14:23:21.100Z,14.66
2022-09-28T14:26:24.169Z,14.66
2022-09-28T14:29:10.057Z,14.56
2022-09-28T14:31:45.398Z,14.48
2022-09-28T14:34:36.745Z,14.41
2022-09-28T14:37:44.446Z,14.37
2022-09-28T14:40:48.720Z,14.31
2022-09-28T14:43:38.628Z,14.18
2022-09-28T14:46:36.227Z,14.08
2022-09-28T14:49:47.663Z,13.99
2022-09-28T14:52:39.194Z,13.89
2022-09-28T14:55:23.687Z,13.85
2022-09-28T14:57:59.068Z,13.81
2022-09-28T15:00:32.700Z,13.77
2022-09-28T15:03:10.222Z,13.70
2022-09-28T15:05:48.174Z,13.62
2022-09-28T15:08:22.820Z,13.57
2022-09-28T15:10:54.997Z,13.53
2022-09-28T15:13:30.115Z,13.51
2022-09-28T15:16:09.921Z,13.49
2022-09-28T15:19:08.362Z,13.48
2022-09-28T15:21:42.395Z,13.45
2022-09-28T15:24:33.065Z,13.40
2022-09-28T15:27:19.113Z,13.33
2022-09-28T15:30:01.596Z,13.26
2022-09-28T15:32:34.862Z,13.21
2022-09-28T15:35:17.444Z,13.17
2022-09-28T15:37:52.159Z,13.13
2022-09-28T15:40:32.627Z,13.10
2022-09-28T15:43:21.446Z,13.08
2022-09-28T15:46:02.665Z,13.04
2022-09-28T15:48:42.355Z,12.99
2022-09-28T15:51:14.635Z,12.96
2022-09-28T15:53:56.123Z,12.93
2022-09-28T15:56:29.837Z,12.91
2022-09-28T15:59:26.494Z,12.88
2022-09-28T16:02:14.212Z,12.84
2022-09-28T16:04:50.647Z,12.79
2022-09-28T16:07:28.512Z,12.74
2022-09-28T16:10:06.310Z,12.70
2022-09-28T16:12:48.720Z,12.68
2022-09-28T16:15:23.977Z,12.66
2022-09-28T16:17:58.114Z,12.63
2022-09-28T16:20:34.459Z,12.61
2022-09-28T16:23:21.344Z,12.59
2022-09-28T16:25:56.466Z,12.56
2022-09-28T16:28:46.150Z,12.54
2022-09-28T16:31:29.742Z,12.50
2022-09-28T16:34:11.551Z,12.48
2022-09-28T16:36:45.584Z,12.44
2022-09-28T16:39:19.262Z,12.42
2022-09-28T16:41:53.928Z,12.39
2022-09-28T16:44:29.329Z,12.36
2022-09-28T16:47:01.537Z,12.34
2022-09-28T16:49:34.778Z,12.31
2022-09-28T16:52:10.131Z,12.29
2022-09-28T16:54:59.468Z,12.26
2022-09-28T16:57:31.286Z,12.25
2022-09-28T17:00:03.839Z,12.23
2022-09-28T17:02:46.420Z,12.21
2022-09-28T17:05:20.369Z,12.19
2022-09-28T17:08:01.021Z,12.18
2022-09-28T17:10:55.719Z,12.17
2022-09-28T17:13:33.356Z,12.15
2022-09-28T17:16:10.454Z,12.13
2022-09-28T17:18:42.778Z,12.12
2022-09-28T17:21:16.957Z,12.12
2022-09-28T17:23:50.340Z,12.13
2022-09-28T17:26:30.401Z,12.13
2022-09-28T17:29:02.990Z,12.13
2022-09-28T17:31:35.062Z,12.12
2022-09-28T17:34:06.928Z,12.12
2022-09-28T17:36:39.231Z,12.11
2022-09-28T17:39:14.225Z,12.09
2022-09-28T17:41:46.288Z,12.06
2022-09-28T17:44:19.093Z,12.04
2022-09-28T17:46:52.442Z,11.97
2022-09-28T17:49:24.355Z,11.92
2022-09-28T17:51:56.245Z,11.85
2022-09-28T17:54:28.117Z,11.78
2022-09-28T17:57:00.215Z,11.71
2022-09-28T17:59:32.220Z,11.64
2022-09-28T18:02:04.329Z,11.60
2022-09-28T18:04:51.385Z,11.56
2022-09-28T18:07:23.849Z,11.48
2022-09-28T18:09:58.270Z,11.45
2022-09-28T18:12:30.234Z,11.39
2022-09-28T18:15:02.056Z,11.33
2022-09-28T18:17:34.151Z,11.25
2022-09-28T18:20:07.401Z,11.17
2022-09-28T18:22:39.587Z,11.11
2022-09-28T18:25:12.207Z,11.07
2022-09-28T18:27:44.221Z,11.04
2022-09-28T18:30:16.099Z,11.00
2022-09-28T18:32:47.861Z,10.94
2022-09-28T18:35:22.993Z,10.86
2022-09-28T18:37:55.588Z,10.79
2022-09-28T18:40:27.778Z,10.74
2022-09-28T18:42:59.601Z,10.68
2022-09-28T18:45:31.464Z,10.64
2022-09-28T18:48:03.338Z,10.61
2022-09-28T18:50:35.729Z,10.54
2022-09-28T18:53:13.746Z,10.49
2022-09-28T18:55:45.835Z,10.41
2022-09-28T18:58:17.792Z,10.34
2022-09-28T19:00:49.654Z,10.27
2022-09-28T19:03:21.678Z,10.17
2022-09-28T19:05:53.768Z,10.08
2022-09-28T19:08:27.725Z,10.02
2022-09-28T19:11:09.012Z,9.96
2022-09-28T19:13:41.788Z,9.93
2022-09-28T19:16:17.053Z,9.87
2022-09-28T19:18:50.790Z,9.87
2022-09-28T19:21:22.756Z,9.87
2022-09-28T19:23:55.487Z,9.86
2022-09-28T19:26:28.948Z,9.84
2022-09-28T19:29:02.941Z,9.82
2022-09-28T19:31:35.870Z,9.80
2022-09-28T19:34:11.786Z,9.76
2022-09-28T19:36:46.766Z,9.73
2022-09-28T19:39:19.360Z,9.72
2022-09-28T19:41:52.496Z,9.69
2022-09-28T19:44:26.982Z,9.66
2022-09-28T19:47:06.744Z,9.62
2022-09-28T19:49:41.826Z,9.60
2022-09-28T19:52:17.179Z,9.59
2022-09-28T19:54:56.968Z,9.57
2022-09-28T19:57:31.081Z,9.55
2022-09-28T20:00:04.178Z,9.52
2022-09-28T20:02:41.554Z,9.51
2022-09-28T20:05:13.566Z,9.50
2022-09-28T20:07:46.954Z,9.48
2022-09-28T20:10:18.961Z,9.46
2022-09-28T20:12:52.347Z,9.45
2022-09-28T20:15:24.173Z,9.43
2022-09-28T20:17:56.190Z,9.42
2022-09-28T20:20:28.334Z,9.41
2022-09-28T20:23:00.864Z,9.39
2022-09-28T20:25:33.059Z,9.37
2022-09-28T20:28:05.975Z,9.35
2022-09-28T20:30:39.684Z,9.33
2022-09-28T20:33:15.709Z,9.30
2022-09-28T20:35:50.864Z,9.26
2022-09-28T20:38:23.836Z,9.24
2022-09-28T20:40:59.930Z,9.24
2022-09-28T20:43:34.609Z,9.23
2022-09-28T20:46:07.945Z,9.21
2022-09-28T20:48:40.199Z,9.19
2022-09-28T20:51:15.420Z,9.17
2022-09-28T20:53:51.444Z,9.15
2022-09-28T20:56:25.295Z,9.14
2022-09-28T20:58:57.729Z,9.13
2022-09-28T21:01:31.948Z,9.12
2022-09-28T21:04:06.295Z,9.11
2022-09-28T21:06:41.114Z,9.10
2022-09-28T21:09:14.277Z,9.10
2022-09-28T21:11:46.939Z,9.11
2022-09-28T21:14:18.942Z,9.12
2022-09-28T21:16:51.410Z,9.13
2022-09-28T21:19:24.179Z,9.14
2022-09-28T21:21:56.145Z,9.16
2022-09-28T21:24:28.465Z,9.18
2022-09-28T21:27:00.449Z,9.19
2022-09-28T21:29:32.868Z,9.23
2022-09-28T21:32:06.094Z,9.25
2022-09-28T21:34:38.025Z,9.26
2022-09-28T21:37:10.198Z,9.27
2022-09-28T21:39:42.076Z,9.28
2022-09-28T21:42:14.015Z,9.29
2022-09-28T21:44:46.000Z,9.28
2022-09-28T21:47:17.786Z,9.28
2022-09-28T21:49:49.566Z,9.28
2022-09-28T21:52:21.402Z,9.27
2022-09-28T21:54:53.535Z,9.25
2022-09-28T21:57:25.524Z,9.22
2022-09-28T21:59:57.494Z,9.21
2022-09-28T22:02:29.883Z,9.17
2022-09-28T22:05:01.749Z,9.14
2022-09-28T22:07:34.046Z,9.11
2022-09-28T22:10:06.405Z,9.05
2022-09-28T22:12:38.622Z,9.02
2022-09-28T22:15:12.621Z,8.98
2022-09-28T22:17:44.671Z,8.94
2022-09-28T22:20:16.750Z,8.90
2022-09-28T22:22:53.097Z,8.85
2022-09-28T22:25:25.346Z,8.80
2022-09-28T22:27:57.344Z,8.74
2022-09-28T22:30:29.371Z,8.70
2022-09-28T22:33:01.128Z,8.67
2022-09-28T22:35:32.947Z,8.64
2022-09-28T22:38:05.663Z,8.61
2022-09-28T22:40:38.298Z,8.59
2022-09-28T22:43:10.384Z,8.56
2022-09-28T22:45:42.267Z,8.53
2022-09-28T22:48:14.284Z,8.51
2022-09-28T22:50:52.550Z,8.49
2022-09-28T22:53:24.464Z,8.46
2022-09-28T22:55:57.427Z,8.44
2022-09-28T22:58:29.686Z,8.40
2022-09-28T23:01:08.292Z,8.38
2022-09-28T23:12:05.895Z,8.23
2022-09-28T23:14:39.289Z,8.18
2022-09-28T23:17:11.448Z,8.16
2022-09-28T23:19:43.963Z,8.13
2022-09-28T23:22:16.334Z,8.10
2022-09-28T23:24:48.833Z,8.05
2022-09-28T23:27:21.217Z,8.01
2022-09-28T23:29:54.508Z,7.98
2022-09-28T23:32:31.743Z,7.96
2022-09-28T23:35:04.341Z,7.94
2022-09-28T23:37:37.769Z,7.92
2022-09-28T23:40:11.528Z,7.89
2022-09-28T23:42:43.828Z,7.84
2022-09-28T23:45:17.211Z,7.81
2022-09-28T23:47:49.671Z,7.78
2022-09-28T23:50:21.774Z,7.75
2022-09-28T23:52:54.730Z,7.73
2022-09-28T23:55:27.135Z,7.70
2022-09-28T23:57:59.501Z,7.71
